Time;durP1;ratioP1;P1;durP2;ratioP2;P2;SDS_P1;SDS_P2;PMS_P1;PMS_P2;Temp;Humidity;BMP_temperature;BMP_pressure;BME280_temperature;BME280_humidity;BME280_pressure;Samples;Min_cycle;Max_cycle;Signal;HPM_P1;HPM_P2
2021/07/20 00:01:56;;;;;;;1.67;1.57;;;17.30;99.90;;;;;;4952600;28;20551;-78
2021/07/20 00:04:22;;;;;;;2.47;2.27;;;17.20;99.90;;;;;;4949089;28;20716;-78
2021/07/20 00:06:48;;;;;;;8.63;1.37;;;17.20;99.90;;;;;;4946442;28;20182;-76
2021/07/20 00:09:13;;;;;;;3.13;2.10;;;17.20;99.90;;;;;;4951072;28;20635;-78
2021/07/20 00:11:39;;;;;;;1.47;1.07;;;17.20;99.90;;;;;;4954128;28;20450;-80
2021/07/20 00:14:04;;;;;;;1.73;1.07;;;17.10;99.90;;;;;;4957927;28;20592;-74
2021/07/20 00:16:30;;;;;;;1.20;1.10;;;17.10;99.90;;;;;;4950148;28;20174;-78
2021/07/20 00:18:56;;;;;;;0.80;0.80;;;17.10;99.90;;;;;;4949113;28;20504;-78
2021/07/20 00:21:21;;;;;;;2.40;1.80;;;17.10;99.90;;;;;;4950476;28;20179;-78
2021/07/20 00:23:47;;;;;;;2.87;2.17;;;17.10;99.90;;;;;;4947866;28;20195;-78
2021/07/20 00:26:13;;;;;;;1.63;1.37;;;17.00;99.90;;;;;;4950883;28;20188;-78
2021/07/20 00:28:39;;;;;;;2.63;2.37;;;17.00;99.90;;;;;;4949120;28;20647;-78
2021/07/20 00:31:05;;;;;;;0.80;0.60;;;17.00;99.90;;;;;;4938106;28;20513;-78
2021/07/20 00:33:31;;;;;;;2.27;2.07;;;17.00;99.90;;;;;;4945161;28;20247;-79
2021/07/20 00:35:56;;;;;;;2.30;1.70;;;17.00;99.90;;;;;;4946567;28;20941;-78
2021/07/20 00:38:22;;;;;;;2.70;1.87;;;17.00;99.90;;;;;;4945756;28;20539;-78
2021/07/20 00:40:48;;;;;;;2.33;2.13;;;17.00;99.90;;;;;;4949729;28;20182;-78
2021/07/20 00:43:14;;;;;;;1.53;1.43;;;17.00;99.90;;;;;;4950651;28;20234;-78
2021/07/20 00:45:40;;;;;;;1.57;1.47;;;16.90;99.90;;;;;;4948773;28;20178;-78
2021/07/20 00:48:06;;;;;;;2.47;1.40;;;16.90;99.90;;;;;;4949953;28;20891;-78
2021/07/20 00:50:38;;;;;;;1.17;0.90;;;16.90;99.90;;;;;;4935702;28;20828;-78
2021/07/20 00:53:05;;;;;;;1.20;1.10;;;16.90;99.90;;;;;;4946070;28;20466;-78
2021/07/20 00:55:35;;;;;;;2.80;1.27;;;16.80;99.90;;;;;;4947529;28;21112;-78
2021/07/20 00:58:02;;;;;;;1.30;1.20;;;16.80;99.90;;;;;;4950775;28;20487;-78
2021/07/20 01:00:28;;;;;;;4.67;1.30;;;16.80;99.90;;;;;;4949510;28;20442;-78
2021/07/20 01:02:54;;;;;;;4.10;1.73;;;16.80;99.90;;;;;;4949744;28;20465;-79
2021/07/20 01:05:22;;;;;;;1.43;0.87;;;16.80;99.90;;;;;;4948800;28;20179;-78
2021/07/20 01:07:49;;;;;;;1.73;1.00;;;16.80;99.90;;;;;;4949002;28;20442;-78
2021/07/20 01:10:16;;;;;;;2.13;1.40;;;16.80;99.90;;;;;;4947688;28;20465;-78
2021/07/20 01:12:44;;;;;;;1.43;1.20;;;16.70;99.90;;;;;;4950813;28;20418;-78
2021/07/20 01:15:11;;;;;;;1.37;1.07;;;16.70;99.90;;;;;;4948212;28;20449;-78
2021/07/20 01:17:38;;;;;;;2.50;1.47;;;16.70;99.90;;;;;;4949416;28;20433;-78
2021/07/20 01:20:13;;;;;;;1.37;0.83;;;16.60;99.90;;;;;;4949619;28;20422;-78
2021/07/20 01:22:44;;;;;;;1.93;1.73;;;16.70;99.90;;;;;;4950274;28;20456;-78
2021/07/20 01:25:11;;;;;;;1.43;0.93;;;16.60;99.90;;;;;;4948576;28;20421;-77
2021/07/20 01:27:46;;;;;;;2.10;1.63;;;16.60;99.90;;;;;;4950430;28;20977;-76
2021/07/20 01:30:12;;;;;;;0.80;0.63;;;16.60;99.90;;;;;;4952170;28;20503;-77
2021/07/20 01:32:39;;;;;;;3.23;1.53;;;16.50;99.90;;;;;;4956145;28;20528;-76
2021/07/20 01:35:06;;;;;;;3.63;1.53;;;16.50;99.90;;;;;;4953077;28;20934;-77
2021/07/20 01:37:32;;;;;;;1.70;1.60;;;16.50;99.90;;;;;;4956599;28;20942;-77
2021/07/20 01:39:59;;;;;;;1.30;1.20;;;16.50;99.90;;;;;;4953716;29;20521;-76
2021/07/20 01:42:26;;;;;;;3.13;2.93;;;16.50;99.90;;;;;;4965786;28;20779;-77
2021/07/20 01:44:53;;;;;;;1.57;1.47;;;16.40;99.90;;;;;;4953414;28;20414;-77
2021/07/20 01:47:20;;;;;;;1.10;1.00;;;16.40;99.90;;;;;;4952721;28;20492;-77
2021/07/20 01:49:47;;;;;;;1.20;1.10;;;16.40;99.90;;;;;;4941145;28;20436;-77
2021/07/20 01:52:13;;;;;;;2.63;1.03;;;16.40;99.90;;;;;;4983178;28;20493;-76
2021/07/20 01:54:44;;;;;;;1.20;1.10;;;16.40;99.90;;;;;;4937212;29;20457;-77
2021/07/20 01:57:11;;;;;;;1.70;1.60;;;16.40;99.90;;;;;;4940665;28;20422;-76
2021/07/20 01:59:37;;;;;;;1.33;1.23;;;16.40;99.90;;;;;;4940667;29;20951;-76
2021/07/20 02:02:09;;;;;;;3.17;1.17;;;16.30;99.90;;;;;;4953225;28;20449;-76
2021/07/20 02:09:50;;;;;;;3.77;3.40;;;16.30;99.90;;;;;;4950719;29;20421;-76
2021/07/20 02:12:19;;;;;;;3.67;1.23;;;16.20;99.90;;;;;;4950824;28;20469;-77
2021/07/20 02:14:47;;;;;;;1.77;1.13;;;16.30;99.90;;;;;;4934357;29;20419;-77
2021/07/20 02:17:13;;;;;;;2.07;1.07;;;16.30;99.90;;;;;;4949684;28;20767;-77
2021/07/20 02:19:50;;;;;;;2.37;1.60;;;16.20;99.90;;;;;;4971001;28;20527;-76
2021/07/20 02:22:20;;;;;;;2.13;1.00;;;16.20;99.90;;;;;;4951582;28;20457;-77
2021/07/20 02:24:49;;;;;;;0.80;0.80;;;16.20;99.90;;;;;;4950770;28;20505;-77
2021/07/20 02:27:18;;;;;;;1.53;1.43;;;16.10;99.90;;;;;;4949207;28;20432;-76
2021/07/20 02:29:44;;;;;;;2.00;1.90;;;16.10;99.90;;;;;;5042014;28;20421;-76
2021/07/20 02:32:11;;;;;;;0.70;0.53;;;16.10;99.90;;;;;;4979746;28;21058;-77
2021/07/20 02:34:38;;;;;;;1.20;1.10;;;16.10;99.90;;;;;;4959433;28;20424;-77
2021/07/20 02:37:05;;;;;;;11.33;1.63;;;16.10;99.90;;;;;;4988003;28;20418;-76
2021/07/20 02:39:31;;;;;;;1.73;0.90;;;16.10;99.90;;;;;;4942220;28;20761;-76
2021/07/20 02:41:58;;;;;;;1.90;1.73;;;16.10;99.90;;;;;;4949533;28;20957;-76
2021/07/20 02:44:25;;;;;;;1.33;1.20;;;16.00;99.90;;;;;;4964927;28;20429;-76
2021/07/20 02:46:52;;;;;;;1.20;1.10;;;16.00;99.90;;;;;;5050696;28;20743;-76
2021/07/20 02:49:19;;;;;;;1.57;1.47;;;16.00;99.90;;;;;;4983713;28;20434;-76
2021/07/20 02:51:50;;;;;;;1.03;0.73;;;16.00;99.90;;;;;;4955264;28;20485;-76
2021/07/20 02:54:18;;;;;;;0.80;0.70;;;16.00;99.90;;;;;;4941247;28;20521;-76
2021/07/20 02:56:45;;;;;;;0.80;0.80;;;15.90;99.90;;;;;;4981223;28;20817;-76
2021/07/20 02:59:15;;;;;;;1.73;1.60;;;15.90;99.90;;;;;;4940708;28;20513;-76
2021/07/20 03:01:42;;;;;;;1.67;1.57;;;15.90;99.90;;;;;;4952145;29;20418;-77
2021/07/20 03:04:08;;;;;;;2.50;1.60;;;15.90;99.90;;;;;;4952531;28;20418;-77
2021/07/20 03:06:37;;;;;;;0.80;0.80;;;15.90;99.90;;;;;;4962558;28;20780;-76
2021/07/20 03:09:04;;;;;;;1.73;1.60;;;15.90;99.90;;;;;;4950442;28;20790;-77
2021/07/20 03:11:31;;;;;;;2.80;1.23;;;15.80;99.90;;;;;;5003803;28;20452;-76
2021/07/20 03:14:01;;;;;;;1.23;0.80;;;15.80;99.90;;;;;;4948183;28;20479;-76
2021/07/20 03:16:28;;;;;;;3.67;1.83;;;15.80;99.90;;;;;;4943657;28;20436;-76
2021/07/20 03:18:55;;;;;;;2.90;1.43;;;15.80;99.90;;;;;;4956904;28;20457;-76
2021/07/20 03:21:22;;;;;;;1.47;1.37;;;15.70;99.90;;;;;;4959249;28;20440;-76
2021/07/20 03:23:50;;;;;;;2.20;1.47;;;15.70;99.90;;;;;;4984566;28;20453;-77
2021/07/20 03:26:16;;;;;;;1.47;0.80;;;15.70;99.90;;;;;;4948989;28;20426;-76
2021/07/20 03:28:43;;;;;;;2.80;1.40;;;15.70;99.90;;;;;;5012972;28;20798;-77
2021/07/20 03:31:09;;;;;;;0.73;0.60;;;15.70;99.90;;;;;;4942278;29;20477;-77
2021/07/20 03:33:38;;;;;;;1.57;1.17;;;15.70;99.90;;;;;;4934230;29;20517;-76
2021/07/20 03:36:04;;;;;;;1.37;1.27;;;15.60;99.90;;;;;;4932899;29;20427;-77
2021/07/20 03:38:30;;;;;;;1.13;1.03;;;15.60;99.90;;;;;;4949094;28;20950;-76
2021/07/20 03:40:56;;;;;;;4.03;3.83;;;15.60;99.90;;;;;;4958652;28;20454;-77
2021/07/20 03:43:24;;;;;;;3.37;2.07;;;15.60;99.90;;;;;;4951133;28;20244;-77
2021/07/20 03:45:50;;;;;;;1.33;0.90;;;15.60;99.90;;;;;;4951851;28;20903;-78
2021/07/20 03:48:17;;;;;;;1.83;1.43;;;15.50;99.90;;;;;;4952070;28;20464;-77
2021/07/20 03:50:45;;;;;;;1.80;1.33;;;15.50;99.90;;;;;;4963905;28;20462;-77
2021/07/20 03:53:12;;;;;;;1.90;1.63;;;15.50;99.90;;;;;;5052849;28;20495;-77
2021/07/20 03:55:49;;;;;;;2.50;1.77;;;15.50;99.90;;;;;;4970491;28;20430;-77
2021/07/20 03:58:16;;;;;;;3.93;2.83;;;15.50;99.90;;;;;;4932890;29;20904;-77
2021/07/20 04:00:45;;;;;;;1.80;1.70;;;15.40;99.90;;;;;;4956660;28;20479;-76
2021/07/20 04:03:21;;;;;;;1.10;1.00;;;15.30;99.90;;;;;;4987308;28;20472;-76
2021/07/20 04:05:49;;;;;;;1.47;1.27;;;15.40;99.90;;;;;;4944300;28;20476;-77
2021/07/20 04:08:18;;;;;;;1.90;1.80;;;15.30;99.90;;;;;;4936907;29;20422;-77
2021/07/20 04:10:49;;;;;;;1.07;0.97;;;15.40;99.90;;;;;;4946922;28;20450;-77
2021/07/20 04:13:15;;;;;;;1.33;1.23;;;15.30;99.90;;;;;;4942273;29;21022;-77
2021/07/20 04:15:47;;;;;;;1.83;1.73;;;15.30;99.90;;;;;;4932442;29;20438;-77
2021/07/20 04:18:14;;;;;;;3.93;1.57;;;15.30;99.90;;;;;;4942593;29;20426;-78
2021/07/20 04:20:40;;;;;;;2.10;2.00;;;15.30;99.90;;;;;;4951952;28;20409;-77
2021/07/20 04:23:07;;;;;;;2.10;1.93;;;15.30;99.90;;;;;;4990621;28;20442;-76
2021/07/20 04:25:36;;;;;;;3.27;1.73;;;15.40;99.90;;;;;;4950927;29;20483;-77
2021/07/20 04:28:02;;;;;;;1.67;0.70;;;15.40;99.90;;;;;;4951691;28;20402;-77
2021/07/20 04:30:28;;;;;;;1.10;1.00;;;15.40;99.90;;;;;;4947724;29;20954;-76
2021/07/20 04:32:55;;;;;;;1.20;1.10;;;15.50;99.90;;;;;;5012631;28;20496;-76
2021/07/20 04:35:22;;;;;;;2.40;1.80;;;15.50;99.90;;;;;;4933303;28;20430;-77
2021/07/20 04:37:50;;;;;;;1.67;1.30;;;15.50;99.90;;;;;;4934043;29;20415;-77
2021/07/20 04:40:16;;;;;;;18.03;1.57;;;15.50;99.90;;;;;;4944016;28;20418;-77
2021/07/20 04:42:42;;;;;;;1.90;1.80;;;15.50;99.90;;;;;;4979160;28;20448;-77
2021/07/20 04:45:10;;;;;;;1.63;1.23;;;15.50;99.90;;;;;;4932353;29;20175;-77
2021/07/20 04:47:38;;;;;;;2.00;1.43;;;15.50;99.90;;;;;;4937717;28;20778;-77
2021/07/20 04:50:07;;;;;;;2.53;2.40;;;15.50;99.90;;;;;;4949808;28;20821;-76
2021/07/20 04:52:33;;;;;;;3.43;3.23;;;15.50;99.90;;;;;;4950958;28;20835;-77
2021/07/20 04:55:00;;;;;;;2.60;1.30;;;15.50;99.90;;;;;;4949346;28;20433;-76
2021/07/20 04:57:26;;;;;;;3.37;2.80;;;15.50;99.90;;;;;;4957868;28;20424;-77
2021/07/20 04:59:51;;;;;;;5.60;2.00;;;15.50;99.90;;;;;;4959128;28;20923;-77
2021/07/20 05:02:18;;;;;;;0.80;0.77;;;15.60;99.90;;;;;;4966028;28;20746;-77
2021/07/20 05:04:44;;;;;;;2.23;2.07;;;15.50;99.90;;;;;;4948935;29;20167;-77
2021/07/20 05:07:16;;;;;;;9.33;1.33;;;15.60;99.90;;;;;;4977370;28;20449;-78
2021/07/20 05:09:43;;;;;;;6.10;2.20;;;15.70;99.90;;;;;;4949366;28;20437;-78
2021/07/20 05:12:11;;;;;;;1.37;1.27;;;15.70;99.90;;;;;;4950855;29;20512;-77
2021/07/20 05:14:37;;;;;;;1.33;1.23;;;15.70;99.90;;;;;;4940083;28;20557;-77
2021/07/20 05:17:05;;;;;;;2.30;2.20;;;15.80;99.90;;;;;;4975121;28;20503;-77
2021/07/20 05:19:30;;;;;;;1.00;0.87;;;15.80;99.90;;;;;;4945773;28;20171;-77
2021/07/20 05:21:58;;;;;;;1.70;1.50;;;15.80;99.90;;;;;;4950829;28;20556;-77
2021/07/20 05:24:24;;;;;;;2.73;1.53;;;15.90;99.90;;;;;;4948810;28;20189;-77
2021/07/20 05:26:51;;;;;;;5.63;2.00;;;16.00;99.90;;;;;;4949028;28;20422;-77
2021/07/20 05:29:20;;;;;;;2.20;2.00;;;16.00;99.90;;;;;;4950629;28;20170;-77
2021/07/20 05:31:47;;;;;;;1.63;1.53;;;16.10;99.90;;;;;;4943584;29;20524;-77
2021/07/20 05:34:17;;;;;;;1.30;1.20;;;16.20;99.90;;;;;;4938263;28;20932;-77
2021/07/20 05:36:43;;;;;;;1.30;1.20;;;16.30;99.90;;;;;;4936439;29;20426;-78
2021/07/20 05:39:13;;;;;;;1.30;1.20;;;16.40;99.90;;;;;;4947978;28;20414;-77
2021/07/20 05:41:43;;;;;;;7.03;2.07;;;16.40;99.90;;;;;;4931458;29;20407;-78
2021/07/20 05:44:10;;;;;;;1.93;1.53;;;16.50;99.90;;;;;;4948590;28;20492;-77
2021/07/20 05:46:37;;;;;;;1.80;1.70;;;16.60;99.90;;;;;;4941187;28;20442;-77
2021/07/20 05:49:03;;;;;;;3.83;3.47;;;16.70;99.90;;;;;;4932807;29;20510;-77
2021/07/20 05:51:29;;;;;;;1.53;1.40;;;16.80;99.90;;;;;;4985138;28;20535;-78
2021/07/20 05:53:56;;;;;;;3.70;2.10;;;16.90;99.90;;;;;;5048799;28;20650;-78
2021/07/20 05:56:28;;;;;;;0.90;0.80;;;17.00;99.90;;;;;;4948474;28;20418;-77
2021/07/20 05:58:54;;;;;;;6.10;4.83;;;17.10;99.90;;;;;;4949085;28;20779;-78
2021/07/20 06:01:20;;;;;;;7.33;3.63;;;17.20;99.90;;;;;;4957077;28;20426;-77
2021/07/20 06:03:46;;;;;;;1.50;1.40;;;17.40;99.90;;;;;;5007181;28;20652;-77
2021/07/20 06:06:12;;;;;;;2.10;1.60;;;17.60;99.90;;;;;;5049810;28;20636;-77
2021/07/20 06:08:39;;;;;;;3.97;3.37;;;17.80;99.90;;;;;;4941430;28;20426;-77
2021/07/20 06:11:05;;;;;;;1.53;1.33;;;18.00;99.90;;;;;;4973508;28;20202;-78
2021/07/20 06:13:41;;;;;;;0.90;0.90;;;18.20;99.90;;;;;;4969664;28;20438;-77
2021/07/20 06:16:09;;;;;;;0.93;0.83;;;18.40;99.90;;;;;;4952568;28;21006;-77
2021/07/20 06:18:36;;;;;;;9.00;2.50;;;18.60;99.90;;;;;;4938304;29;20431;-78
2021/07/20 06:21:07;;;;;;;2.37;2.17;;;18.70;99.90;;;;;;4953408;28;20448;-77
2021/07/20 06:23:37;;;;;;;3.73;1.60;;;18.90;99.90;;;;;;4987234;28;20446;-80
2021/07/20 06:26:03;;;;;;;4.63;1.27;;;19.10;99.90;;;;;;4945765;29;20504;-77
2021/07/20 06:28:29;;;;;;;5.13;1.60;;;19.30;99.90;;;;;;4952691;29;20911;-77
2021/07/20 06:30:56;;;;;;;2.00;1.83;;;19.40;99.90;;;;;;4954820;28;20454;-77
2021/07/20 06:33:24;;;;;;;1.83;1.20;;;19.60;99.90;;;;;;4980715;28;20533;-78
2021/07/20 06:35:51;;;;;;;6.47;1.43;;;19.70;99.90;;;;;;4954907;28;20422;-79
2021/07/20 06:38:19;;;;;;;4.70;2.90;;;19.90;99.90;;;;;;4956614;28;20423;-78
2021/07/20 06:40:48;;;;;;;2.63;2.43;;;20.10;99.90;;;;;;4934084;29;20493;-76
2021/07/20 06:43:15;;;;;;;1.97;1.70;;;20.20;99.90;;;;;;4979201;28;20457;-79
2021/07/20 06:45:43;;;;;;;2.93;2.63;;;20.10;99.90;;;;;;4946208;28;20811;-78
2021/07/20 06:48:14;;;;;;;2.73;2.53;;;20.30;99.90;;;;;;4949463;29;20453;-79
2021/07/20 06:50:41;;;;;;;1.40;1.30;;;20.40;99.90;;;;;;4940050;28;20533;-79
2021/07/20 06:53:07;;;;;;;2.07;1.60;;;20.60;99.90;;;;;;4943478;28;20512;-78
2021/07/20 06:55:37;;;;;;;6.20;2.20;;;20.70;99.90;;;;;;4941445;29;20425;-78
2021/07/20 06:58:03;;;;;;;2.03;1.67;;;20.90;99.90;;;;;;4932527;29;22156;-78
2021/07/20 07:00:29;;;;;;;2.00;1.90;;;21.00;99.90;;;;;;4943091;28;20422;-78
2021/07/20 07:02:59;;;;;;;7.97;2.37;;;21.20;99.90;;;;;;4948538;28;20932;-78
2021/07/20 07:05:29;;;;;;;2.87;2.23;;;21.40;99.90;;;;;;4932194;28;20876;-78
2021/07/20 07:07:56;;;;;;;2.30;1.70;;;21.50;99.90;;;;;;4947803;28;20423;-78
2021/07/20 07:10:22;;;;;;;4.33;1.30;;;21.70;99.90;;;;;;4947200;29;20497;-77
2021/07/20 07:12:50;;;;;;;4.67;2.93;;;21.80;99.90;;;;;;4932137;28;20915;-78
2021/07/20 07:15:17;;;;;;;3.23;1.60;;;21.90;99.90;;;;;;4950023;29;20425;-78
2021/07/20 07:17:47;;;;;;;2.90;1.00;;;21.90;99.90;;;;;;5021232;28;20422;-78
2021/07/20 07:20:16;;;;;;;2.90;2.70;;;22.00;99.90;;;;;;4934625;29;20443;-78
2021/07/20 07:22:43;;;;;;;2.60;1.10;;;22.20;99.90;;;;;;4936700;28;20452;-78
2021/07/20 07:25:10;;;;;;;1.90;1.73;;;22.30;99.90;;;;;;4943907;28;20418;-78
2021/07/20 07:27:38;;;;;;;4.90;2.83;;;22.40;99.90;;;;;;4948294;28;20473;-78
2021/07/20 07:30:06;;;;;;;3.97;3.67;;;22.60;99.90;;;;;;4956524;28;20425;-80
2021/07/20 07:32:32;;;;;;;6.60;3.37;;;22.70;99.90;;;;;;4944140;28;20427;-78
2021/07/20 07:34:57;;;;;;;3.73;1.30;;;22.90;99.90;;;;;;4945798;29;20426;-79
2021/07/20 07:37:25;;;;;;;2.43;1.63;;;23.00;99.90;;;;;;4968283;28;20222;-78
2021/07/20 07:39:53;;;;;;;4.83;1.63;;;23.20;99.90;;;;;;4945122;28;20181;-78
2021/07/20 07:42:20;;;;;;;3.60;2.10;;;23.30;99.90;;;;;;4950002;28;20931;-79
2021/07/20 07:44:48;;;;;;;2.73;1.40;;;23.50;99.90;;;;;;4954404;28;20422;-80
2021/07/20 07:47:14;;;;;;;2.60;2.40;;;23.70;99.90;;;;;;5009853;28;20509;-78
2021/07/20 07:49:45;;;;;;;1.83;1.10;;;23.90;99.90;;;;;;5051020;28;20461;-77
2021/07/20 07:52:14;;;;;;;1.50;1.40;;;24.00;99.90;;;;;;5052730;28;20461;-77
2021/07/20 07:54:41;;;;;;;1.93;1.40;;;24.20;99.90;;;;;;4950360;28;20442;-79
2021/07/20 07:57:07;;;;;;;2.57;2.47;;;24.20;99.90;;;;;;4977351;28;20422;-79
2021/07/20 07:59:37;;;;;;;2.90;2.27;;;24.40;99.90;;;;;;4934858;29;20502;-78
2021/07/20 08:02:04;;;;;;;2.03;1.90;;;24.50;99.90;;;;;;4959509;28;20465;-77
2021/07/20 08:04:33;;;;;;;2.03;1.47;;;24.50;99.90;;;;;;4951866;28;20426;-79
2021/07/20 08:07:00;;;;;;;3.10;1.30;;;24.70;99.90;;;;;;4940790;28;20766;-78
2021/07/20 08:09:29;;;;;;;2.13;2.00;;;24.70;99.90;;;;;;4959574;28;20433;-80
2021/07/20 08:11:58;;;;;;;1.40;1.30;;;24.70;99.90;;;;;;4976454;28;20468;-79
2021/07/20 08:14:24;;;;;;;3.47;2.47;;;24.70;99.90;;;;;;4957938;28;20822;-79
2021/07/20 08:16:54;;;;;;;2.40;1.67;;;24.60;99.90;;;;;;4950986;28;20511;-77
2021/07/20 08:19:20;;;;;;;2.30;2.10;;;24.60;99.90;;;;;;4958178;28;20179;-78
2021/07/20 08:21:46;;;;;;;5.97;1.90;;;24.90;99.90;;;;;;4933086;28;20418;-78
2021/07/20 08:24:13;;;;;;;5.63;1.53;;;25.20;99.90;;;;;;4988969;28;20454;-78
2021/07/20 08:26:52;;;;;;;3.93;1.33;;;25.50;99.90;;;;;;4951262;28;20836;-78
2021/07/20 08:29:21;;;;;;;2.20;2.00;;;26.00;99.90;;;;;;4959075;28;20433;-77
2021/07/20 08:31:56;;;;;;;1.43;1.33;;;26.30;99.90;;;;;;4949694;28;20543;-77
2021/07/20 08:34:23;;;;;;;1.90;1.70;;;26.60;99.90;;;;;;4932252;29;20422;-78
2021/07/20 08:36:50;;;;;;;1.93;1.57;;;26.90;99.90;;;;;;4936094;29;20422;-78
2021/07/20 08:39:17;;;;;;;3.27;1.77;;;26.80;99.90;;;;;;4947171;28;20468;-78
2021/07/20 08:42:21;;;;;;;1.93;1.73;;;26.90;99.90;;;;;;4950608;28;20436;-78
2021/07/20 08:45:25;;;;;;;1.73;1.37;;;26.90;99.90;;;;;;4949625;28;20929;-77
2021/07/20 08:48:19;;;;;;;3.10;1.60;;;27.00;99.90;;;;;;4949775;28;20475;-78
2021/07/20 08:50:53;;;;;;;1.67;1.40;;;27.20;99.90;;;;;;4949102;28;20453;-80
2021/07/20 08:53:46;;;;;;;2.83;2.53;;;27.40;99.90;;;;;;4949624;28;20434;-79
2021/07/20 08:56:12;;;;;;;2.10;1.40;;;27.60;99.90;;;;;;4939908;28;20453;-78
2021/07/20 08:58:45;;;;;;;2.90;2.17;;;27.50;99.90;;;;;;5051529;28;21099;-78
2021/07/20 09:01:22;;;;;;;1.63;1.17;;;27.20;99.90;;;;;;4947501;28;20461;-78
2021/07/20 09:04:00;;;;;;;1.93;1.30;;;27.00;99.90;;;;;;4942378;28;20818;-77
2021/07/20 09:06:48;;;;;;;1.23;1.10;;;27.10;99.90;;;;;;4959091;28;20480;-77
2021/07/20 09:09:25;;;;;;;1.90;1.80;;;27.20;99.90;;;;;;4950525;29;20498;-76
2021/07/20 09:11:57;;;;;;;3.57;2.50;;;27.10;99.90;;;;;;4950620;29;20465;-77
2021/07/20 09:14:50;;;;;;;2.50;0.97;;;27.10;99.90;;;;;;4950646;28;20926;-77
2021/07/20 09:17:31;;;;;;;3.20;1.60;;;27.10;99.90;;;;;;4950094;28;20426;-76
2021/07/20 09:20:11;;;;;;;6.67;1.70;;;26.90;99.90;;;;;;4945343;28;20422;-77
2021/07/20 09:23:07;;;;;;;1.97;1.57;;;26.80;99.90;;;;;;4956579;28;20456;-77
2021/07/20 09:25:48;;;;;;;2.73;1.70;;;26.90;99.90;;;;;;4978909;28;20483;-77
2021/07/20 09:28:39;;;;;;;1.70;1.60;;;26.90;99.90;;;;;;4954883;28;20918;-79
2021/07/20 09:31:20;;;;;;;3.40;2.00;;;27.00;99.90;;;;;;4956055;28;20457;-78
2021/07/20 09:33:57;;;;;;;1.10;1.00;;;27.00;99.90;;;;;;4953092;28;20513;-79
2021/07/20 09:36:28;;;;;;;2.23;2.03;;;27.10;99.90;;;;;;4980843;28;20436;-79
2021/07/20 09:39:17;;;;;;;1.47;1.37;;;27.10;99.90;;;;;;4957750;28;20429;-80
2021/07/20 09:41:59;;;;;;;3.20;2.50;;;26.80;99.90;;;;;;4959854;28;20441;-77
2021/07/20 09:44:31;;;;;;;2.80;2.57;;;26.50;99.90;;;;;;4955141;28;20426;-77
2021/07/20 09:47:24;;;;;;;4.67;3.20;;;26.30;99.90;;;;;;4939078;28;20418;-77
2021/07/20 09:50:11;;;;;;;2.10;1.90;;;26.60;99.90;;;;;;4968561;28;20916;-77
2021/07/20 09:52:43;;;;;;;2.20;2.00;;;26.80;99.90;;;;;;4953590;29;21087;-77
2021/07/20 09:55:36;;;;;;;2.03;1.50;;;26.90;99.90;;;;;;4960402;28;20433;-79
2021/07/20 09:58:02;;;;;;;1.60;1.50;;;26.90;99.90;;;;;;4972320;28;20433;-79
2021/07/20 10:00:37;;;;;;;3.90;1.60;;;27.10;99.90;;;;;;4958711;29;20803;-79
2021/07/20 10:03:19;;;;;;;3.50;1.70;;;27.50;99.90;;;;;;4957995;28;20202;-79
2021/07/20 10:06:01;;;;;;;2.27;1.67;;;27.80;99.90;;;;;;4956643;28;20518;-79
2021/07/20 10:08:41;;;;;;;1.77;1.30;;;28.20;99.90;;;;;;4957903;29;20467;-77
2021/07/20 10:11:37;;;;;;;2.30;1.63;;;28.20;99.90;;;;;;4947708;28;20457;-80
2021/07/20 10:14:22;;;;;;;2.00;1.80;;;28.30;99.90;;;;;;4956120;28;20426;-79
2021/07/20 10:16:57;;;;;;;2.40;2.20;;;28.70;96.60;;;;;;4954954;28;20512;-79
2021/07/20 10:19:47;;;;;;;1.80;1.70;;;28.80;96.20;;;;;;4957014;28;20414;-80
2021/07/20 10:22:17;;;;;;;4.80;2.23;;;29.20;93.60;;;;;;4957714;28;20442;-79
2021/07/20 10:24:57;;;;;;;10.00;1.87;;;29.60;90.30;;;;;;4956529;28;20421;-79
2021/07/20 10:27:31;;;;;;;2.73;1.60;;;30.00;93.40;;;;;;4958343;28;20822;-78
2021/07/20 10:30:03;;;;;;;1.37;1.27;;;30.40;91.80;;;;;;4957974;28;20424;-77
2021/07/20 10:32:48;;;;;;;2.27;1.63;;;30.60;87.60;;;;;;4963444;28;20473;-78
2021/07/20 10:35:36;;;;;;;2.97;1.67;;;30.70;87.90;;;;;;4963625;28;20488;-79
2021/07/20 10:38:05;;;;;;;2.57;2.03;;;30.60;84.90;;;;;;4956124;28;20988;-79
2021/07/20 10:40:32;;;;;;;1.67;1.57;;;30.50;83.10;;;;;;4956435;28;20833;-79
2021/07/20 10:43:05;;;;;;;2.70;2.27;;;30.60;81.70;;;;;;4958374;29;20456;-80
2021/07/20 10:45:34;;;;;;;6.70;2.23;;;30.70;84.70;;;;;;4955911;28;20422;-79
2021/07/20 10:48:10;;;;;;;1.90;1.80;;;31.20;84.00;;;;;;4956778;28;20433;-79
2021/07/20 10:50:45;;;;;;;3.23;1.63;;;31.30;81.30;;;;;;4957298;28;20823;-79
2021/07/20 10:53:41;;;;;;;12.43;3.10;;;31.50;76.10;;;;;;4956494;28;20468;-79
2021/07/20 10:56:20;;;;;;;4.23;1.80;;;31.50;72.00;;;;;;4962008;28;20429;-78
2021/07/20 10:58:49;;;;;;;2.83;1.70;;;31.30;74.80;;;;;;4946828;28;20426;-78
2021/07/20 11:01:35;;;;;;;2.60;1.70;;;31.10;75.50;;;;;;4960057;28;20425;-79
2021/07/20 11:04:19;;;;;;;3.77;2.47;;;31.20;74.40;;;;;;4958739;28;20537;-80
2021/07/20 11:06:47;;;;;;;6.03;3.00;;;31.30;79.90;;;;;;4951766;28;21541;-77
2021/07/20 11:09:20;;;;;;;3.50;3.13;;;31.40;74.20;;;;;;4947021;28;20442;-78
2021/07/20 11:11:56;;;;;;;5.17;2.80;;;31.60;74.70;;;;;;4952174;28;20454;-78
2021/07/20 11:14:27;;;;;;;2.90;2.40;;;32.00;73.60;;;;;;4938741;29;20413;-77
2021/07/20 11:16:55;;;;;;;4.77;2.90;;;32.10;71.50;;;;;;4947007;28;20430;-80
2021/07/20 11:19:25;;;;;;;1.93;1.80;;;32.20;64.00;;;;;;4958831;28;20441;-79
2021/07/20 11:21:51;;;;;;;2.30;2.10;;;32.40;68.30;;;;;;4966943;28;20422;-79
2021/07/20 11:24:18;;;;;;;3.77;2.33;;;32.40;65.50;;;;;;4958766;28;20426;-79
2021/07/20 11:26:44;;;;;;;2.67;2.30;;;32.40;66.70;;;;;;4955816;28;20482;-80
2021/07/20 11:29:11;;;;;;;3.20;2.00;;;32.30;66.90;;;;;;4955618;28;20431;-79
2021/07/20 11:31:57;;;;;;;1.83;1.70;;;32.20;70.00;;;;;;4955459;28;20474;-80
2021/07/20 11:34:35;;;;;;;2.50;2.07;;;32.10;68.60;;;;;;4956781;28;20437;-79
2021/07/20 11:37:05;;;;;;;7.77;1.80;;;31.80;65.60;;;;;;4955733;28;20426;-78
2021/07/20 11:39:36;;;;;;;2.23;1.70;;;31.50;67.20;;;;;;4945109;28;20426;-79
2021/07/20 11:42:17;;;;;;;4.97;2.33;;;31.10;67.40;;;;;;4951927;28;20541;-76
2021/07/20 11:44:54;;;;;;;1.60;1.50;;;30.80;67.40;;;;;;4983174;28;20434;-78
2021/07/20 11:47:48;;;;;;;4.57;2.10;;;30.70;66.60;;;;;;4946997;28;20445;-78
2021/07/20 11:50:32;;;;;;;4.33;3.00;;;30.60;66.90;;;;;;4940121;28;20449;-80
2021/07/20 11:53:19;;;;;;;3.37;1.43;;;30.80;66.50;;;;;;4954787;28;20457;-76
2021/07/20 11:55:57;;;;;;;1.60;1.50;;;31.10;68.80;;;;;;4953996;28;21003;-78
2021/07/20 11:58:29;;;;;;;2.70;2.50;;;31.50;72.40;;;;;;4957386;28;20792;-79
2021/07/20 12:01:13;;;;;;;2.17;1.80;;;31.70;70.90;;;;;;4955285;28;20525;-79
2021/07/20 12:03:57;;;;;;;2.93;2.67;;;31.50;69.50;;;;;;4954718;28;20521;-77
2021/07/20 12:06:43;;;;;;;3.47;1.83;;;31.20;69.00;;;;;;4949494;28;20469;-80
2021/07/20 12:09:37;;;;;;;2.03;1.87;;;30.90;70.10;;;;;;4943910;28;20445;-80
2021/07/20 12:12:03;;;;;;;2.13;1.40;;;30.90;71.90;;;;;;4954467;28;20500;-79
2021/07/20 12:14:30;;;;;;;1.70;1.60;;;31.10;69.50;;;;;;4953942;28;20943;-79
2021/07/20 12:16:56;;;;;;;3.20;3.00;;;31.20;69.20;;;;;;4950315;28;20175;-78
2021/07/20 12:19:36;;;;;;;2.77;2.57;;;31.30;67.40;;;;;;4950225;28;20438;-77
2021/07/20 12:22:06;;;;;;;2.67;1.60;;;31.40;60.10;;;;;;4945995;28;20190;-78
2021/07/20 12:24:33;;;;;;;4.40;1.93;;;31.70;66.30;;;;;;4949076;28;20442;-79
2021/07/20 12:26:59;;;;;;;3.20;2.03;;;31.80;68.20;;;;;;4948871;28;20780;-78
2021/07/20 12:29:28;;;;;;;2.33;2.13;;;32.00;71.00;;;;;;4949634;28;20465;-78
2021/07/20 12:31:55;;;;;;;2.40;2.20;;;32.20;71.00;;;;;;4949674;28;20469;-78
2021/07/20 12:34:22;;;;;;;2.40;1.83;;;32.20;65.80;;;;;;4948253;28;20469;-78
2021/07/20 12:36:48;;;;;;;2.00;1.47;;;32.30;68.00;;;;;;4949236;28;20870;-78
2021/07/20 12:39:18;;;;;;;2.03;1.87;;;32.30;65.10;;;;;;4948527;28;21163;-78
2021/07/20 12:41:49;;;;;;;3.17;1.60;;;32.40;66.20;;;;;;4942903;28;20954;-77
2021/07/20 12:44:15;;;;;;;1.90;1.67;;;32.60;64.00;;;;;;4958030;28;20417;-78
2021/07/20 12:46:41;;;;;;;1.60;1.50;;;32.50;62.10;;;;;;4932031;29;20417;-78
2021/07/20 12:49:13;;;;;;;2.13;1.80;;;32.40;63.80;;;;;;4963871;28;20982;-78
2021/07/20 12:51:50;;;;;;;3.90;2.10;;;32.30;64.20;;;;;;4954050;28;20461;-78
2021/07/20 12:54:40;;;;;;;4.50;2.10;;;32.10;64.10;;;;;;4947802;28;20465;-78
2021/07/20 12:57:06;;;;;;;1.43;1.33;;;32.30;64.70;;;;;;4949127;28;20438;-77
2021/07/20 12:59:38;;;;;;;2.47;1.80;;;32.40;65.00;;;;;;4948907;28;20771;-79
2021/07/20 13:02:07;;;;;;;3.33;2.23;;;32.20;60.80;;;;;;4948655;28;20809;-78
2021/07/20 13:04:34;;;;;;;1.63;1.40;;;32.30;65.80;;;;;;4947752;28;20453;-78
2021/07/20 13:07:00;;;;;;;1.83;1.73;;;32.20;60.60;;;;;;4950144;28;20437;-78
2021/07/20 13:09:26;;;;;;;3.90;1.63;;;32.30;60.50;;;;;;4949696;28;20918;-77